Airport View

Enter AWOS ICAO identifier for current METAR.

ex. KFNL

KTNU 202225Z AUTO 13004KT 1 3/4SM BR OVC004 05/05 A2998 RMK A01

20 Oct 2020 22:26

Frequency: 132.275

Phone: 641-791-3302

Other Area AWOS: KGGI - KPEA - KOXV - KIKV

TAF AMD KDSM 202122Z 2021/2118 10006KT 2SM -DZ BR OVC010 FM210300 24004KT P6SM BKN100 FM211100 33004KT P6SM BKN060